Riverton, Illinois
Current Conditions -  °F | °C
As of 5:52 AM on Saturday 25 Oct 2014 (Local Time) from KSPI Reporting Station
Haze Haze  
Wind Chill: 58°   Ceiling: 1400
Heat Index: 58°   Visibility: 6mi
Dew Point: 55°   Wind: 5mph
Humidity: 90%   Direction: 260°W
Pressure: 29.99"   Gusts: NA
Location:  39.84°N, 89.54°W
Report Text: KSPI 251052Z 26004KT 6SM BR OVC014 14/13 A2999 RMK AO2 SLP155 T01440128
Loading
Personal Weather Stations






























Interactive Weather Map
Tropical Storm Tracking
New forecast layout! Learn more

10-Day Weather Forecast

Advertisements
Track Severe Weather on mobile